Azuqueca de Henares, Spain
Current Conditions -  °F | °C
As of 7:00 PM on Monday 20 Oct 2014 (Local Time) from LETO Reporting Station
Clear Clear  
Wind Chill: 77°   Ceiling: Unl
Heat Index: 78°   Visibility: 6mi
Dew Point: 52°   Wind: 0mph
Humidity: 41%   Direction: NA
Pressure: 30.18"   Gusts: NA
Location:  40.57°N, 3.26°W
Report Text: LETO 201700Z 00000KT CAVOK 25/11 Q1022 NOSIG
Loading
Personal Weather Stations






























Interactive Weather Map New forecast layout! Learn more

10-Day Weather Forecast

Advertisements
Track Severe Weather on mobile